Terminal Aerodrome Forecast
Issued by NWS Chicago, IL

Home | Current Version | Previous Version | Graphics & Text | Print | Product List | Glossary On
Versions: 1 2 3 4 5 6 7 8 9 10 11 12 13 14 15 16 17 18 19 20 21 22 23 24 25 26 27 28
574
FTUS43 KLOT 220921 AAA
TAFRFD
TAF AMD
KRFD 220921Z 2209/2306 09010KT 1SM -SHRA BR OVC002
      TEMPO 2209/2210 1/2SM FG
     FM221000 08011KT 4SM -SHRA BR VCTS OVC003CB
      TEMPO 2210/2214 3/4SM SHRA BR OVC003
     FM221400 10011KT 1SM BR OVC004
     FM221900 17010KT 2SM -SHRA BR SCT007 OVC015
     FM230100 23008KT 1SM BR VCSH SCT007 OVC012=

USA.gov is the U.S. government's official web portal to all federal, state and local government web resources and services.